Time;durP1;ratioP1;P1;durP2;ratioP2;P2;SDS_P1;SDS_P2;PMS_P1;PMS_P2;Temp;Humidity;BMP_temperature;BMP_pressure;BME280_temperature;BME280_humidity;BME280_pressure;Samples;Min_cycle;Max_cycle;Signal;HPM_P1;HPM_P2
2021/12/07 00:01:27;;;;;;;27.13;14.38;;;;;;;2.82;100.00;95824.97;5027314;28;20073;-46
2021/12/07 00:03:56;;;;;;;25.00;13.95;;;;;;;2.99;100.00;95828.91;5028919;28;20069;-48
2021/12/07 00:06:25;;;;;;;25.30;13.55;;;;;;;2.90;100.00;95824.41;5024145;28;20073;-48
2021/12/07 00:08:56;;;;;;;23.17;13.82;;;;;;;2.83;100.00;95824.03;5013425;28;20088;-49
2021/12/07 00:11:27;;;;;;;21.75;13.45;;;;;;;2.61;100.00;95818.72;5007747;28;20495;-49
2021/12/07 00:13:58;;;;;;;24.73;14.43;;;;;;;2.75;100.00;95817.72;5024504;28;20464;-44
2021/12/07 00:16:28;;;;;;;24.25;14.25;;;;;;;2.77;100.00;95821.03;5028311;28;20073;-47
2021/12/07 00:18:57;;;;;;;23.75;14.30;;;;;;;2.63;100.00;95823.81;5026513;28;20432;-45
2021/12/07 00:21:26;;;;;;;22.00;13.27;;;;;;;2.50;100.00;95829.09;5023082;28;20061;-46
2021/12/07 00:23:54;;;;;;;20.88;12.85;;;;;;;2.68;100.00;95824.31;5031357;28;20084;-45
2021/12/07 00:26:39;;;;;;;23.73;12.85;;;;;;;2.31;100.00;95819.19;5024461;28;20088;-46
2021/12/07 00:29:09;;;;;;;21.70;12.25;;;;;;;2.59;100.00;95815.41;5020360;28;20068;-46
2021/12/07 00:31:41;;;;;;;19.58;12.77;;;;;;;2.37;100.00;95806.56;5031521;28;20061;-51
2021/12/07 00:34:17;;;;;;;18.73;12.02;;;;;;;2.73;100.00;95798.78;5025144;28;20067;-45
2021/12/07 00:36:48;;;;;;;21.60;12.43;;;;;;;2.55;100.00;95804.41;5018255;28;20076;-48
2021/12/07 00:39:20;;;;;;;22.90;13.35;;;;;;;2.54;100.00;95797.50;5026967;28;20076;-50
2021/12/07 00:41:51;;;;;;;21.55;13.98;;;;;;;2.48;100.00;95800.59;5022207;28;20052;-48
2021/12/07 00:44:19;;;;;;;;;;;;;;;2.74;100.00;95788.25;5026594;28;20072;-47
2021/12/07 00:46:48;;;;;;;21.67;13.13;;;;;;;2.09;100.00;95792.09;5029462;28;19956;-43
2021/12/07 00:49:18;;;;;;;22.97;13.00;;;;;;;2.22;100.00;95796.41;5020330;28;20069;-48
2021/12/07 00:51:46;;;;;;;20.63;12.57;;;;;;;2.36;100.00;95791.88;5026217;28;20504;-46
2021/12/07 00:54:15;;;;;;;22.65;13.52;;;;;;;2.27;100.00;95791.69;5028256;28;20203;-49
2021/12/07 00:56:43;;;;;;;23.30;13.52;;;;;;;2.38;100.00;95790.00;5021761;28;20065;-47
2021/12/07 00:59:13;;;;;;;21.67;13.50;;;;;;;2.51;100.00;95796.91;5024369;28;20075;-51
2021/12/07 01:01:42;;;;;;;22.20;13.48;;;;;;;2.28;100.00;95798.59;5028103;28;20065;-46
2021/12/07 01:04:11;;;;;;;21.10;13.68;;;;;;;2.72;100.00;95792.75;5021817;28;20071;-50
2021/12/07 01:06:49;;;;;;;19.95;12.68;;;;;;;2.65;100.00;95782.88;5027050;28;20077;-45
2021/12/07 01:09:26;;;;;;;21.33;13.48;;;;;;;2.65;100.00;95790.69;5026761;28;20073;-52
2021/12/07 01:25:52;;;;;;;15.50;10.35;;;;;;;2.29;100.00;95769.84;5025749;28;20601;-48
2021/12/07 01:28:26;;;;;;;18.30;11.23;;;;;;;2.60;100.00;95765.00;5025088;28;20073;-51
2021/12/07 01:31:01;;;;;;;18.10;11.65;;;;;;;2.71;100.00;95767.66;5019626;28;20073;-48
2021/12/07 01:36:35;;;;;;;18.77;11.20;;;;;;;2.58;100.00;95764.28;5024955;28;20068;-48
2021/12/07 01:47:35;;;;;;;16.50;10.80;;;;;;;2.23;100.00;95752.06;5017625;28;20070;-50
2021/12/07 01:53:04;;;;;;;16.58;9.82;;;;;;;2.45;100.00;95760.94;5025347;28;20085;-53
2021/12/07 02:01:05;;;;;;;15.85;10.00;;;;;;;2.83;100.00;95751.13;5031928;28;20068;-47
2021/12/07 02:03:35;;;;;;;15.70;9.43;;;;;;;2.70;100.00;95760.78;5023910;28;20081;-47
2021/12/07 02:06:04;;;;;;;;;;;;;;;2.74;100.00;95750.97;5026243;28;20512;-50
2021/12/07 02:08:33;;;;;;;15.95;9.38;;;;;;;2.81;100.00;95753.00;5031964;28;19948;-51
2021/12/07 02:11:03;;;;;;;11.48;7.90;;;;;;;2.85;100.00;95751.00;5025368;28;20081;-48
2021/12/07 02:16:19;;;;;;;12.48;8.43;;;;;;;3.25;100.00;95748.00;5026555;28;20479;-50
2021/12/07 02:18:48;;;;;;;11.37;7.73;;;;;;;2.94;100.00;95746.88;5023545;28;20199;-47
2021/12/07 02:21:20;;;;;;;12.55;7.80;;;;;;;3.10;100.00;95739.59;5026859;28;20041;-51
2021/12/07 02:23:49;;;;;;;10.57;7.43;;;;;;;3.37;100.00;95747.03;5030959;28;20796;-49
2021/12/07 02:26:18;;;;;;;11.18;7.78;;;;;;;3.28;100.00;95732.13;5024192;28;20087;-49
2021/12/07 02:28:49;;;;;;;9.00;6.88;;;;;;;2.87;100.00;95735.28;5031256;28;20096;-51
2021/12/07 02:31:17;;;;;;;9.52;6.57;;;;;;;3.04;100.00;95729.63;5025158;28;20424;-51
2021/12/07 02:33:47;;;;;;;8.43;6.15;;;;;;;2.83;100.00;95727.69;5024201;28;20073;-53
2021/12/07 02:36:15;;;;;;;7.18;5.70;;;;;;;2.55;100.00;95725.50;5026790;28;20550;-45
2021/12/07 02:38:45;;;;;;;7.40;5.93;;;;;;;3.03;100.00;95726.19;5024951;28;20072;-51
2021/12/07 02:41:13;;;;;;;5.85;4.88;;;;;;;3.11;100.00;95716.97;5024564;28;20096;-47
2021/12/07 02:43:42;;;;;;;6.20;5.53;;;;;;;2.95;100.00;95717.28;5031176;28;20172;-52
2021/12/07 02:46:10;;;;;;;7.88;5.40;;;;;;;3.02;100.00;95710.66;5025119;28;20065;-45
2021/12/07 02:48:39;;;;;;;6.57;5.10;;;;;;;3.39;100.00;95710.47;5025622;28;20072;-48
2021/12/07 02:51:07;;;;;;;5.07;4.55;;;;;;;3.21;100.00;95715.31;5032773;28;20486;-53
2021/12/07 02:53:37;;;;;;;8.23;4.90;;;;;;;2.98;100.00;95719.66;5021178;28;20240;-44
2021/12/07 02:56:08;;;;;;;7.17;5.00;;;;;;;3.31;100.00;95718.88;5025100;28;20090;-49
2021/12/07 02:58:41;;;;;;;6.40;5.10;;;;;;;2.91;100.00;95719.31;5032041;28;20502;-52
2021/12/07 03:01:14;;;;;;;7.55;5.10;;;;;;;2.88;100.00;95714.31;5021976;28;20471;-51
2021/12/07 03:03:54;;;;;;;5.38;4.43;;;;;;;2.91;100.00;95724.50;5025961;28;20057;-49
2021/12/07 03:06:30;;;;;;;5.95;4.82;;;;;;;3.04;100.00;95722.63;5026236;28;20075;-53
2021/12/07 03:26:00;;;;;;;4.72;4.18;;;;;;;2.87;100.00;95727.47;5025767;28;20535;-53
2021/12/07 03:28:31;;;;;;;4.93;4.40;;;;;;;2.64;100.00;95726.56;5024377;28;20089;-51
2021/12/07 03:30:59;;;;;;;4.30;3.90;;;;;;;2.45;100.00;95738.34;5029037;28;20049;-51
2021/12/07 03:33:28;;;;;;;4.93;4.30;;;;;;;2.14;100.00;95745.78;5004773;28;20073;-45
2021/12/07 03:35:57;;;;;;;6.60;4.38;;;;;;;2.30;100.00;95735.09;5012594;28;20075;-50
2021/12/07 03:38:26;;;;;;;6.13;4.47;;;;;;;2.34;100.00;95746.09;5026528;28;20068;-50
2021/12/07 03:40:55;;;;;;;5.72;4.55;;;;;;;2.11;100.00;95745.19;5023122;28;20088;-43
2021/12/07 03:43:23;;;;;;;5.18;4.10;;;;;;;2.31;100.00;95741.97;5026398;28;20093;-46
2021/12/07 03:45:53;;;;;;;5.43;4.72;;;;;;;2.01;100.00;95750.22;5024892;28;20061;-46
2021/12/07 03:48:21;;;;;;;6.03;4.80;;;;;;;2.41;100.00;95751.69;5019884;28;20393;-49
2021/12/07 03:50:50;;;;;;;6.22;5.10;;;;;;;2.20;100.00;95747.09;5026084;28;20064;-46
2021/12/07 03:53:18;;;;;;;6.25;4.78;;;;;;;2.31;100.00;95749.78;5024105;28;20538;-48
2021/12/07 03:55:47;;;;;;;5.20;4.53;;;;;;;2.40;100.00;95750.84;5029298;28;20076;-48
2021/12/07 03:58:16;;;;;;;5.55;4.60;;;;;;;2.57;100.00;95747.84;5027448;28;20057;-47
2021/12/07 04:00:46;;;;;;;5.60;4.70;;;;;;;2.55;100.00;95739.34;5018266;28;20073;-45
2021/12/07 04:03:18;;;;;;;5.78;5.18;;;;;;;2.35;100.00;95743.41;5025412;28;20095;-45
2021/12/07 04:05:49;;;;;;;6.30;4.80;;;;;;;2.58;100.00;95744.31;5022058;28;20061;-44
2021/12/07 04:08:19;;;;;;;5.63;4.70;;;;;;;2.60;100.00;95746.78;5054454;28;20072;-49
2021/12/07 04:10:48;;;;;;;5.55;4.90;;;;;;;2.56;100.00;95742.75;5021820;28;20085;-42
2021/12/07 04:13:17;;;;;;;5.10;4.60;;;;;;;2.43;100.00;95737.63;5025074;28;20493;-45
2021/12/07 04:15:45;;;;;;;5.72;5.05;;;;;;;2.44;100.00;95736.66;5017119;28;20069;-46
2021/12/07 04:18:15;;;;;;;6.35;4.97;;;;;;;2.62;100.00;95731.91;5023348;28;20073;-47
2021/12/07 04:20:45;;;;;;;5.75;5.15;;;;;;;2.37;100.00;95735.47;5024093;28;20065;-51
2021/12/07 04:23:14;;;;;;;5.82;4.82;;;;;;;2.38;100.00;95744.94;5023607;28;20072;-45
2021/12/07 04:25:43;;;;;;;6.10;5.03;;;;;;;2.26;100.00;95756.25;5022869;28;20078;-48
2021/12/07 04:28:12;;;;;;;7.32;4.80;;;;;;;2.59;100.00;95751.19;5021381;28;20108;-49
2021/12/07 04:30:43;;;;;;;5.40;4.90;;;;;;;2.63;100.00;95741.38;5021575;28;20057;-47
2021/12/07 04:33:12;;;;;;;5.60;5.10;;;;;;;2.56;100.00;95753.19;5014381;28;20077;-43
2021/12/07 04:35:45;;;;;;;10.50;4.93;;;;;;;2.34;100.00;95753.91;5022806;28;20156;-48
2021/12/07 04:38:14;;;;;;;6.03;4.75;;;;;;;2.37;100.00;95751.06;5024331;28;20115;-44
2021/12/07 04:40:43;;;;;;;4.93;4.43;;;;;;;2.60;100.00;95750.22;5024434;28;20477;-44
2021/12/07 04:43:12;;;;;;;5.82;5.15;;;;;;;2.57;100.00;95742.63;5019705;28;20068;-46
2021/12/07 04:45:54;;;;;;;8.10;5.30;;;;;;;2.54;100.00;95742.03;5020774;28;20512;-49
2021/12/07 04:48:49;;;;;;;6.72;4.72;;;;;;;2.77;100.00;95748.97;5020973;28;20106;-46
2021/12/07 04:59:39;;;;;;;5.93;4.53;;;;;;;2.74;100.00;95767.41;5022422;28;20060;-45
2021/12/07 05:02:08;;;;;;;4.82;4.15;;;;;;;2.56;100.00;95769.63;5018826;28;20080;-52
2021/12/07 05:04:38;;;;;;;5.03;4.32;;;;;;;2.49;100.00;95762.38;5023701;28;20065;-46
2021/12/07 05:07:13;;;;;;;6.25;4.35;;;;;;;2.67;100.00;95763.63;5022255;28;20429;-45
2021/12/07 05:12:52;;;;;;;5.88;4.35;;;;;;;2.35;100.00;95759.00;4996894;28;20081;-44
2021/12/07 05:15:28;;;;;;;3.97;3.58;;;;;;;2.50;100.00;95759.66;5024576;28;20076;-48
2021/12/07 05:18:03;;;;;;;4.40;3.75;;;;;;;2.62;100.00;95757.94;5022524;28;20068;-45
2021/12/07 05:34:42;;;;;;;4.75;4.10;;;;;;;2.86;100.00;95778.72;5026280;28;21449;-46
2021/12/07 05:39:58;;;;;;;5.07;3.90;;;;;;;2.90;100.00;95800.97;5029695;28;20037;-51
2021/12/07 05:42:26;;;;;;;4.30;3.90;;;;;;;2.84;100.00;95793.63;5025075;28;20483;-54
2021/12/07 05:44:55;;;;;;;8.57;4.30;;;;;;;3.01;100.00;95794.97;5022647;28;20076;-49
2021/12/07 05:47:24;;;;;;;4.30;3.92;;;;;;;2.88;100.00;95797.66;5027052;28;20065;-52
2021/12/07 05:49:53;;;;;;;4.32;3.92;;;;;;;2.60;100.00;95802.28;5024721;28;20085;-51
2021/12/07 05:52:21;;;;;;;4.43;3.35;;;;;;;3.00;100.00;95799.34;5025688;28;20096;-48
2021/12/07 05:54:50;;;;;;;3.75;3.40;;;;;;;3.12;100.00;95791.56;5029889;28;20548;-51
2021/12/07 05:57:21;;;;;;;5.00;3.55;;;;;;;2.95;100.00;95806.66;5023974;28;20083;-52
2021/12/07 05:59:49;;;;;;;4.10;3.70;;;;;;;3.11;100.00;95806.34;5023909;28;20061;-53
2021/12/07 06:02:18;;;;;;;4.50;3.15;;;;;;;2.84;100.00;95801.41;5027250;28;20491;-47
2021/12/07 06:04:46;;;;;;;4.28;3.67;;;;;;;2.98;100.00;95808.22;5020086;28;20120;-50
2021/12/07 06:07:15;;;;;;;4.32;3.38;;;;;;;2.94;100.00;95812.81;5021710;28;20569;-51
2021/12/07 06:09:43;;;;;;;4.20;3.80;;;;;;;3.15;100.00;95806.94;5025160;28;20072;-46
2021/12/07 06:12:12;;;;;;;4.13;3.00;;;;;;;2.82;100.00;95803.28;5020945;28;20041;-49
2021/12/07 06:14:44;;;;;;;3.03;2.72;;;;;;;2.76;100.00;95809.81;5028309;28;20069;-44
2021/12/07 06:17:13;;;;;;;4.90;3.70;;;;;;;2.86;100.00;95799.53;5021033;28;20042;-47
2021/12/07 06:19:41;;;;;;;4.18;3.65;;;;;;;3.04;100.00;95794.75;5026164;28;20073;-43
2021/12/07 06:22:10;;;;;;;4.75;3.60;;;;;;;3.22;100.00;95797.72;5027714;28;20072;-47
2021/12/07 06:24:38;;;;;;;3.63;3.33;;;;;;;2.79;100.00;95798.34;5016511;28;20073;-49
2021/12/07 06:27:07;;;;;;;5.43;3.50;;;;;;;3.21;100.00;95798.69;5029529;28;20064;-50
2021/12/07 06:29:35;;;;;;;4.95;3.92;;;;;;;3.09;100.00;95808.22;5023454;28;20091;-46
2021/12/07 06:32:06;;;;;;;5.47;3.60;;;;;;;3.04;100.00;95813.78;5020694;28;20557;-46
2021/12/07 06:34:34;;;;;;;4.20;3.80;;;;;;;3.17;100.00;95821.53;5026137;28;20081;-43
2021/12/07 06:37:06;;;;;;;5.28;3.60;;;;;;;3.18;100.00;95820.56;5022617;28;20056;-47
2021/12/07 06:39:35;;;;;;;3.50;3.20;;;;;;;2.93;100.00;95824.19;5019237;28;20451;-46
2021/12/07 06:42:04;;;;;;;4.35;3.55;;;;;;;2.93;100.00;95821.59;5022145;28;20080;-49
2021/12/07 06:44:33;;;;;;;4.18;3.58;;;;;;;3.25;100.00;95826.16;5028243;28;20056;-48
2021/12/07 06:47:01;;;;;;;3.13;2.88;;;;;;;2.96;100.00;95823.97;5027501;28;20491;-46
2021/12/07 06:49:31;;;;;;;3.78;3.38;;;;;;;2.98;100.00;95835.06;5037219;28;20081;-45
2021/12/07 06:51:59;;;;;;;4.15;3.38;;;;;;;3.19;100.00;95837.03;5026945;28;20052;-50
2021/12/07 06:54:28;;;;;;;3.13;2.92;;;;;;;3.31;100.00;95831.75;5032920;28;20068;-46
2021/12/07 06:56:57;;;;;;;3.60;3.30;;;;;;;3.32;100.00;95835.16;5029696;28;20069;-51
2021/12/07 06:59:25;;;;;;;3.88;3.35;;;;;;;3.38;100.00;95834.72;5026189;28;20069;-45
2021/12/07 07:01:54;;;;;;;5.75;3.20;;;;;;;3.14;100.00;95839.16;5030141;28;20085;-46
2021/12/07 07:04:23;;;;;;;3.50;3.20;;;;;;;3.41;100.00;95844.91;5029930;28;20065;-48
2021/12/07 07:06:53;;;;;;;3.47;3.17;;;;;;;3.40;100.00;95843.22;5023054;28;20083;-47
2021/12/07 07:09:21;;;;;;;3.58;3.28;;;;;;;3.44;100.00;95855.09;5028747;28;20076;-48
2021/12/07 07:11:50;;;;;;;3.40;3.10;;;;;;;3.16;100.00;95845.06;5026541;28;20451;-46
2021/12/07 07:14:18;;;;;;;3.30;3.05;;;;;;;3.48;100.00;95851.31;5024525;28;20484;-48
2021/12/07 07:16:46;;;;;;;3.45;3.15;;;;;;;3.42;100.00;95854.38;5035049;28;20081;-50
2021/12/07 07:19:15;;;;;;;3.08;2.88;;;;;;;3.30;100.00;95856.16;5021934;28;20544;-47
2021/12/07 07:21:43;;;;;;;3.38;3.08;;;;;;;3.43;100.00;95860.41;5030093;28;20077;-52
2021/12/07 07:24:13;;;;;;;3.47;3.17;;;;;;;3.33;100.00;95874.13;5030044;28;20087;-51
2021/12/07 07:26:42;;;;;;;3.55;3.25;;;;;;;3.39;100.00;95878.06;5025446;28;20073;-48
2021/12/07 07:29:10;;;;;;;3.70;3.20;;;;;;;3.53;100.00;95880.47;5028699;28;20069;-49
2021/12/07 07:31:40;;;;;;;4.15;3.85;;;;;;;3.46;100.00;95871.44;5028111;28;20088;-47
2021/12/07 07:34:09;;;;;;;3.33;3.03;;;;;;;3.27;100.00;95874.59;5024021;28;20069;-50
2021/12/07 07:36:37;;;;;;;3.55;3.25;;;;;;;3.16;100.00;95873.72;5027645;28;20065;-47
2021/12/07 07:39:06;;;;;;;5.15;3.50;;;;;;;3.45;100.00;95888.03;5026255;28;20057;-51
2021/12/07 07:41:36;;;;;;;3.80;3.50;;;;;;;3.45;100.00;95897.63;5027655;28;20448;-52
2021/12/07 07:44:05;;;;;;;3.70;3.40;;;;;;;3.25;100.00;95889.50;5027166;28;20067;-51
2021/12/07 07:46:33;;;;;;;3.08;2.88;;;;;;;3.24;100.00;95894.84;5020100;28;20531;-50
2021/12/07 07:49:02;;;;;;;3.90;3.50;;;;;;;3.47;100.00;95900.94;5031513;28;20527;-47
2021/12/07 07:51:31;;;;;;;3.97;3.63;;;;;;;3.44;100.00;95906.38;5026436;28;20072;-52
2021/12/07 07:54:00;;;;;;;4.20;3.58;;;;;;;3.50;100.00;95908.53;5025722;28;20072;-51
2021/12/07 07:56:29;;;;;;;3.50;3.20;;;;;;;3.60;100.00;95906.91;5024799;28;20084;-48
2021/12/07 07:58:59;;;;;;;2.92;2.72;;;;;;;3.36;100.00;95914.78;5026633;28;20081;-51
2021/12/07 08:01:30;;;;;;;3.53;3.22;;;;;;;3.56;100.00;95902.88;5024889;28;20129;-52
2021/12/07 08:04:00;;;;;;;3.50;3.20;;;;;;;3.68;100.00;95911.53;5031752;28;20071;-49
2021/12/07 08:06:28;;;;;;;5.47;3.45;;;;;;;3.60;100.00;95919.94;5010697;28;20070;-46
2021/12/07 08:08:57;;;;;;;3.70;2.97;;;;;;;3.76;100.00;95919.63;5002198;28;20119;-51
2021/12/07 08:11:26;;;;;;;4.05;3.40;;;;;;;3.73;100.00;95914.63;5010508;28;20080;-48
2021/12/07 08:13:55;;;;;;;4.82;3.58;;;;;;;3.68;100.00;95921.94;5020042;28;20069;-48
2021/12/07 08:16:25;;;;;;;4.13;3.58;;;;;;;3.77;100.00;95923.88;5005797;28;20089;-50
2021/12/07 08:18:54;;;;;;;4.57;3.70;;;;;;;3.75;100.00;95913.56;5022999;28;20127;-45
2021/12/07 08:21:22;;;;;;;3.75;3.42;;;;;;;3.73;100.00;95915.47;5023234;28;20079;-49
2021/12/07 08:23:51;;;;;;;4.78;4.03;;;;;;;3.77;100.00;95910.84;5015277;28;20069;-50
2021/12/07 08:26:22;;;;;;;3.55;3.25;;;;;;;3.59;100.00;95922.66;5008172;28;20061;-52
2021/12/07 08:28:52;;;;;;;4.60;3.78;;;;;;;3.61;100.00;95929.41;5022865;28;20080;-48
2021/12/07 08:31:21;;;;;;;6.88;3.83;;;;;;;3.69;100.00;95936.66;5002720;28;20116;-47
2021/12/07 08:33:51;;;;;;;3.25;2.95;;;;;;;3.53;100.00;95943.03;5004216;28;20554;-46
2021/12/07 08:36:19;;;;;;;4.50;3.45;;;;;;;3.47;100.00;95945.25;5001824;28;20084;-52
2021/12/07 08:38:49;;;;;;;4.30;3.90;;;;;;;3.74;100.00;95944.97;5011081;28;20476;-47
2021/12/07 08:41:18;;;;;;;4.53;4.10;;;;;;;3.66;100.00;95947.31;5007977;28;20061;-47
2021/12/07 08:43:51;;;;;;;5.32;3.70;;;;;;;3.74;100.00;95953.63;5029524;28;20475;-49
2021/12/07 08:46:20;;;;;;;3.90;3.60;;;;;;;3.63;100.00;95958.81;5027545;28;20073;-49
2021/12/07 08:48:48;;;;;;;6.65;3.97;;;;;;;3.87;100.00;95955.31;5023488;28;20084;-46
2021/12/07 08:51:19;;;;;;;4.72;3.50;;;;;;;3.66;100.00;95957.75;5018317;28;20617;-42
2021/12/07 08:53:53;;;;;;;4.55;3.28;;;;;;;3.55;100.00;95954.19;5014887;28;20076;-51
2021/12/07 09:01:54;;;;;;;3.05;2.75;;;;;;;4.35;100.00;95953.34;5004536;28;20093;-47
2021/12/07 09:04:23;;;;;;;4.18;3.20;;;;;;;4.59;100.00;95957.59;5000671;28;20081;-50
2021/12/07 09:06:53;;;;;;;3.55;3.25;;;;;;;4.59;100.00;95955.00;5001455;28;20072;-49
2021/12/07 09:09:21;;;;;;;3.22;2.92;;;;;;;4.71;100.00;95967.06;5016563;28;20072;-48
2021/12/07 09:11:50;;;;;;;3.88;3.30;;;;;;;5.12;100.00;95969.00;5024597;28;20095;-48
2021/12/07 09:14:18;;;;;;;4.82;3.10;;;;;;;4.96;100.00;95961.56;5026374;28;20099;-44
2021/12/07 09:16:47;;;;;;;3.75;2.55;;;;;;;5.09;100.00;95971.03;5022827;28;20084;-53
2021/12/07 09:19:16;;;;;;;4.57;2.80;;;;;;;4.94;100.00;95966.06;5017354;28;20324;-52
2021/12/07 09:21:44;;;;;;;3.03;2.72;;;;;;;4.90;100.00;95969.91;5027291;28;20075;-45
2021/12/07 09:24:14;;;;;;;3.47;2.95;;;;;;;4.86;100.00;95972.88;5024975;28;20077;-51
2021/12/07 09:26:44;;;;;;;3.70;3.38;;;;;;;4.76;100.00;95965.75;5024504;28;20674;-51
2021/12/07 09:29:12;;;;;;;3.40;2.78;;;;;;;4.57;100.00;95965.53;5032169;28;20058;-50
2021/12/07 09:31:42;;;;;;;3.30;2.83;;;;;;;4.99;100.00;95977.00;5023082;28;20076;-54
2021/12/07 09:34:12;;;;;;;2.97;2.72;;;;;;;4.79;100.00;95987.38;5033646;28;20175;-50
2021/12/07 09:36:41;;;;;;;3.42;3.03;;;;;;;4.85;100.00;95982.50;5020138;28;20073;-49
2021/12/07 09:39:11;;;;;;;3.25;2.95;;;;;;;5.12;100.00;95991.69;5023743;28;20484;-49
2021/12/07 09:41:41;;;;;;;3.50;2.57;;;;;;;4.98;100.00;95982.34;5025375;28;20501;-53
2021/12/07 09:44:11;;;;;;;3.28;2.97;;;;;;;4.81;100.00;95983.66;5022789;28;20466;-52
2021/12/07 09:46:41;;;;;;;2.50;2.30;;;;;;;4.60;100.00;95970.53;5023348;28;20085;-47
2021/12/07 09:49:10;;;;;;;4.82;2.47;;;;;;;4.87;100.00;95964.09;5024777;28;20065;-49
2021/12/07 09:51:39;;;;;;;2.80;2.60;;;;;;;4.90;100.00;95972.50;5024050;28;20128;-46
2021/12/07 09:54:10;;;;;;;3.30;3.00;;;;;;;4.68;100.00;95977.75;5025085;28;20371;-46
2021/12/07 09:56:41;;;;;;;2.75;2.53;;;;;;;4.76;100.00;95970.97;5027610;28;20077;-48
2021/12/07 09:59:10;;;;;;;5.82;3.60;;;;;;;5.12;100.00;95974.22;5020588;28;20451;-50
2021/12/07 10:01:41;;;;;;;3.05;2.78;;;;;;;4.97;100.00;95971.06;5029403;28;20145;-49
2021/12/07 10:04:11;;;;;;;3.28;2.97;;;;;;;5.48;100.00;95959.16;5024607;28;20581;-47
2021/12/07 10:06:40;;;;;;;4.25;3.08;;;;;;;5.69;100.00;95970.44;5007451;28;20077;-52
2021/12/07 10:09:09;;;;;;;2.72;2.53;;;;;;;5.31;100.00;95976.19;5013534;28;20069;-50
2021/12/07 10:11:37;;;;;;;3.90;2.70;;;;;;;5.09;100.00;95968.41;5023410;28;20094;-49
2021/12/07 10:14:07;;;;;;;3.50;3.20;;;;;;;5.50;100.00;95975.53;5027091;28;20069;-48
2021/12/07 10:16:36;;;;;;;3.22;2.92;;;;;;;5.63;100.00;95977.97;5033364;28;20087;-51
2021/12/07 10:19:04;;;;;;;2.97;2.78;;;;;;;4.95;100.00;95986.03;5004641;28;20057;-51
2021/12/07 10:21:39;;;;;;;2.95;2.75;;;;;;;5.11;100.00;95977.81;5003686;28;20276;-50
2021/12/07 10:24:10;;;;;;;4.53;2.72;;;;;;;5.25;100.00;95976.69;5021380;28;20072;-52
2021/12/07 10:26:40;;;;;;;5.22;2.60;;;;;;;5.12;100.00;95969.00;5026719;28;20069;-49
2021/12/07 10:29:12;;;;;;;3.80;2.70;;;;;;;5.64;100.00;95959.56;5021019;28;20112;-48
2021/12/07 10:31:43;;;;;;;3.03;2.60;;;;;;;5.23;100.00;95966.38;5033848;28;20069;-48
2021/12/07 10:34:14;;;;;;;3.55;2.42;;;;;;;4.98;100.00;95969.28;5027674;28;20095;-49
2021/12/07 10:36:45;;;;;;;2.97;2.67;;;;;;;5.04;100.00;95976.63;5025948;28;20081;-50
2021/12/07 10:39:15;;;;;;;2.90;2.70;;;;;;;5.36;100.00;95974.03;5031333;28;20480;-49
2021/12/07 10:41:46;;;;;;;3.15;2.50;;;;;;;5.09;100.00;95968.41;5022635;28;20071;-48
2021/12/07 10:44:17;;;;;;;8.13;3.35;;;;;;;5.09;100.00;95960.56;5031932;28;20065;-52
2021/12/07 10:46:56;;;;;;;3.78;2.85;;;;;;;5.14;100.00;95963.66;5034105;28;20084;-52
2021/12/07 10:49:33;;;;;;;3.08;2.58;;;;;;;5.20;100.00;95974.47;5025068;28;20511;-48
2021/12/07 10:52:26;;;;;;;4.20;2.40;;;;;;;5.31;100.00;95967.53;5027121;28;20061;-50
2021/12/07 10:54:59;;;;;;;3.75;2.83;;;;;;;5.51;100.00;95953.66;5027717;28;20085;-49
2021/12/07 10:57:30;;;;;;;2.70;2.35;;;;;;;5.41;100.00;95973.69;5024783;28;20365;-55
2021/12/07 11:00:07;;;;;;;3.92;2.47;;;;;;;5.08;100.00;95977.22;5033715;28;20065;-50
2021/12/07 11:02:37;;;;;;;2.72;2.20;;;;;;;5.26;100.00;95975.72;5026928;28;20061;-46
2021/12/07 11:05:09;;;;;;;3.05;2.70;;;;;;;5.49;100.00;95968.66;5022511;28;20439;-51
2021/12/07 11:07:38;;;;;;;2.75;2.40;;;;;;;5.29;100.00;95972.88;5028473;28;20057;-47
2021/12/07 11:10:12;;;;;;;2.70;2.50;;;;;;;5.37;100.00;95983.56;5025182;28;20056;-50
2021/12/07 11:12:49;;;;;;;3.10;2.80;;;;;;;5.22;100.00;95990.00;5021983;28;20073;-46
2021/12/07 11:15:24;;;;;;;3.97;2.72;;;;;;;5.37;100.00;95999.25;5060760;28;20504;-48
2021/12/07 11:17:58;;;;;;;4.15;2.78;;;;;;;5.34;100.00;95986.41;5026235;28;20072;-46
2021/12/07 11:20:28;;;;;;;3.58;2.78;;;;;;;5.43;100.00;95983.03;5026977;28;20065;-50
2021/12/07 11:22:58;;;;;;;4.32;2.70;;;;;;;5.27;100.00;95984.44;5033545;28;20340;-47
2021/12/07 11:31:15;;;;;;;4.43;2.92;;;;;;;5.43;100.00;95969.13;5020226;28;20081;-51
2021/12/07 11:33:43;;;;;;;3.38;2.85;;;;;;;5.13;100.00;95969.84;5029205;28;20077;-54
2021/12/07 11:36:17;;;;;;;3.92;2.97;;;;;;;5.45;100.00;95972.47;5024588;28;20499;-49
2021/12/07 11:38:46;;;;;;;3.67;2.78;;;;;;;5.51;100.00;95969.38;5033723;28;20115;-49
2021/12/07 11:41:15;;;;;;;5.65;2.60;;;;;;;5.46;100.00;95972.31;5029389;28;20048;-46
2021/12/07 11:43:52;;;;;;;2.85;2.63;;;;;;;5.38;100.00;95969.53;5027828;28;20108;-48
2021/12/07 11:46:23;;;;;;;3.10;2.70;;;;;;;5.27;100.00;95966.13;5029609;28;20527;-47
2021/12/07 11:49:09;;;;;;;4.45;2.78;;;;;;;5.75;100.00;95966.50;5024919;28;20073;-53
2021/12/07 11:51:38;;;;;;;3.70;3.22;;;;;;;5.91;100.00;95958.19;5021066;28;20668;-49
2021/12/07 11:54:07;;;;;;;4.55;3.00;;;;;;;5.74;100.00;95961.38;5026269;28;23361;-51
2021/12/07 11:56:36;;;;;;;6.10;2.97;;;;;;;5.79;100.00;95954.84;5023960;28;20080;-46
2021/12/07 11:59:05;;;;;;;3.60;3.30;;;;;;;5.63;100.00;95957.06;5022090;28;20073;-50
2021/12/07 12:01:45;;;;;;;3.25;2.58;;;;;;;5.45;100.00;95962.84;5036002;28;20069;-49
2021/12/07 12:04:14;;;;;;;2.97;2.67;;;;;;;5.24;100.00;95967.19;5026116;28;20442;-50
2021/12/07 12:06:46;;;;;;;3.65;2.60;;;;;;;5.64;100.00;95953.47;5025915;28;20064;-47
2021/12/07 12:09:15;;;;;;;2.75;2.50;;;;;;;5.30;100.00;95955.41;5032843;28;20072;-54
2021/12/07 12:11:51;;;;;;;3.17;2.58;;;;;;;5.53;100.00;95962.19;5021105;28;20065;-52
2021/12/07 12:14:34;;;;;;;5.22;2.80;;;;;;;5.45;100.00;95962.84;5028680;28;20064;-50
2021/12/07 12:17:09;;;;;;;2.30;2.10;;;;;;;5.45;100.00;95967.25;5029004;28;20084;-48
2021/12/07 12:19:51;;;;;;;2.95;2.55;;;;;;;5.32;100.00;95969.19;5025457;28;20149;-48
2021/12/07 12:22:26;;;;;;;2.60;2.40;;;;;;;5.04;100.00;95962.75;5015855;28;20503;-55
2021/12/07 12:24:56;;;;;;;3.67;2.50;;;;;;;5.35;100.00;95975.00;5025464;28;20065;-51
2021/12/07 12:27:27;;;;;;;2.75;2.33;;;;;;;5.31;100.00;95970.16;5015665;28;20088;-51
2021/12/07 12:29:57;;;;;;;2.63;2.42;;;;;;;5.24;100.00;95967.19;5028016;28;20057;-49
2021/12/07 12:32:32;;;;;;;4.07;2.70;;;;;;;5.50;100.00;95959.84;5034644;28;20052;-49
2021/12/07 12:35:02;;;;;;;2.85;2.55;;;;;;;5.70;100.00;95960.81;5021759;28;20080;-49
2021/12/07 12:37:34;;;;;;;3.25;2.67;;;;;;;5.62;100.00;95950.16;5030572;28;20466;-48
2021/12/07 12:40:05;;;;;;;7.63;2.92;;;;;;;5.60;100.00;95950.28;5025512;28;20076;-48
2021/12/07 12:42:37;;;;;;;2.88;2.35;;;;;;;5.59;100.00;95953.03;5020009;28;20057;-50
2021/12/07 12:45:19;;;;;;;3.95;2.75;;;;;;;5.53;100.00;95953.53;5024888;28;20544;-48
2021/12/07 12:47:55;;;;;;;2.50;2.30;;;;;;;5.21;100.00;95952.59;5025577;28;20073;-52
2021/12/07 12:50:27;;;;;;;6.38;2.60;;;;;;;5.38;100.00;95948.59;5022602;28;20073;-50
2021/12/07 12:52:59;;;;;;;3.13;2.35;;;;;;;5.61;100.00;95944.13;5026592;28;20050;-50
2021/12/07 12:55:37;;;;;;;2.80;2.55;;;;;;;5.71;100.00;95950.25;5027460;28;20077;-49
2021/12/07 12:58:08;;;;;;;3.78;2.75;;;;;;;5.85;100.00;95937.78;5020338;28;20081;-53
2021/12/07 13:00:59;;;;;;;2.72;2.47;;;;;;;5.80;100.00;95948.63;5029004;28;20081;-48
2021/12/07 13:03:47;;;;;;;2.60;2.33;;;;;;;5.61;100.00;95925.81;5024131;28;20069;-50
2021/12/07 13:06:18;;;;;;;2.80;2.47;;;;;;;5.59;100.00;95934.72;5020162;28;20450;-51
2021/12/07 13:08:57;;;;;;;4.40;2.58;;;;;;;5.77;100.00;95935.81;5023993;28;20068;-49
2021/12/07 13:11:35;;;;;;;3.05;2.60;;;;;;;5.60;100.00;95913.66;5024607;28;20076;-52
2021/12/07 13:14:06;;;;;;;3.03;2.45;;;;;;;5.90;100.00;95927.75;5021795;28;20514;-45
2021/12/07 13:16:34;;;;;;;;;;;;;;;5.94;100.00;95927.41;5022040;28;20503;-54
2021/12/07 13:19:10;;;;;;;2.92;2.30;;;;;;;6.02;100.00;95920.69;5029483;28;20390;-53
2021/12/07 13:21:39;;;;;;;2.92;2.40;;;;;;;6.07;100.00;95914.13;5021784;28;20068;-51